Irwin, PA

10:52 AM EDT on September 16, 2014 (GMT -0400)
Lincoln Hills | Change Station
CLOSE
Current Station
Personal Weather Station
Location: North Huntingdon, PA
Elevation: 1191 ft
Nearby Weather Stations

Elev 1191 ft 40.31 °N, 79.69 °W | Updated 4 minutes ago

Mostly Cloudy
Mostly Cloudy
61.5 °F
Feels Like 61.5 °F
N
0.4
Wind Variable Wind from West
Gusts 3.1 mph

Today
High -- | Low -- °F
--% Chance of Precip.
Yesterday
High -- | Low -- °F
Precip. -- in
7:00 AM 7:25 PM
Last Quarter, 45% visible
Pressure 30.12 in
Visibility 10.0 miles
Clouds Scattered Clouds 800 ft
Dew Point 55 °F
Humidity 80%
Rainfall 0.05 in
Snow Depth Not available.
UV 3 out of 12
Pollen 3.30 out of 12
Air Quality Not available.
Flu Activity Not available.
SPECI KAGC 161404Z 35006KT 10SM SCT008 13/09 A3012 RMK AO2 T01330094

More Conditions Fewer Conditions

Pressure 30.12 in
Visibility 10.0 miles
Clouds Scattered Clouds 800 ft
Dew Point 55 °F
Humidity 80%
Rainfall 0.05 in
Snow Depth Not available.
UV 3 out of 12
Pollen 3.30 out of 12
Air Quality Not available.
Flu Activity Not available.
SPECI KAGC 161404Z 35006KT 10SM SCT008 13/09 A3012 RMK AO2 T01330094

More Conditions Fewer Conditions

10-Day Weather Forecast

Almanac

Astronomy

Sep. 16, 2014 Rise Set
Actual Time 7:00 AM EDT 7:25 PM EDT
Civil Twilight 6:33 AM EDT 7:53 PM EDT
Nautical Twilight 6:01 AM EDT 8:25 PM EDT
Astronomical Twilight 5:28 AM EDT 8:57 PM EDT
Moon 12:08 AM EDT 2:48 PM EDT
Length of Visible Light 13h 19m
Length of Day
12h 25m
Tomorrow will be 2m 37s shorter.
Last Quarter, 45% of the Moon is Illuminated
Today
Last Quarter
Sep 24
New
Oct 1
First Quarter
Oct 8
Full
Oct 15
Last Quarter

Today's Extremes

State Highs State Lows

Community

WunderPhotos

Upload Photos

1,753,795 photos uploaded!

Nearby

Snow Depth

Station Depth Elevation
No new snow has been reported.

Earthquake Activity

City Distance Mag. Time & Date
No recent earthquake activity has been reported nearby.
Minimum magnitude displayed is 2.5.

Coastal Water Temperatures

Place Temperature
No Stations Reporting

Nearby Weather Stations